createdAt,value
2023-05-22T00:00:03.085Z,100762.35
2023-05-22T00:05:06.960Z,100763.98
2023-05-22T00:10:10.913Z,100762.31
2023-05-22T00:15:14.014Z,100763.41
2023-05-22T00:20:17.343Z,100764.86
2023-05-22T00:25:20.857Z,100763.51
2023-05-22T00:30:23.958Z,100761.41
2023-05-22T00:35:27.069Z,100756.04
2023-05-22T00:40:30.283Z,100755.00
2023-05-22T00:45:33.295Z,100756.23
2023-05-22T00:50:36.609Z,100754.34
2023-05-22T00:55:40.286Z,100756.79
2023-05-22T01:00:43.740Z,100754.52
2023-05-22T01:05:46.754Z,100751.56
2023-05-22T01:11:01.670Z,100757.30
2023-05-22T01:16:30.141Z,100754.00
2023-05-22T01:21:47.820Z,100755.02
2023-05-22T01:27:08.625Z,100749.28
2023-05-22T01:32:16.639Z,100749.28
2023-05-22T01:37:22.820Z,100750.66
2023-05-22T01:42:26.171Z,100754.14
2023-05-22T01:47:29.367Z,100753.80
2023-05-22T01:52:43.924Z,100754.84
2023-05-22T01:57:59.867Z,100753.10
2023-05-22T02:03:09.245Z,100752.05
2023-05-22T02:08:14.754Z,100749.43
2023-05-22T02:13:18.487Z,100751.50
2023-05-22T02:18:29.728Z,100750.81
2023-05-22T02:23:32.991Z,100753.77
2023-05-22T02:28:36.100Z,100754.81
2023-05-22T02:33:39.207Z,100749.95
2023-05-22T02:38:42.323Z,100749.10
2023-05-22T02:43:45.426Z,100749.80
2023-05-22T02:48:48.539Z,100749.64
2023-05-22T02:53:52.573Z,100744.07
2023-05-22T02:58:57.136Z,100739.89
2023-05-22T03:04:00.306Z,100741.43
2023-05-22T03:09:04.601Z,100741.33
2023-05-22T03:14:07.861Z,100739.96
2023-05-22T03:19:15.713Z,100732.88
2023-05-22T03:24:19.109Z,100729.45
2023-05-22T03:29:22.342Z,100729.83
2023-05-22T03:34:27.309Z,100732.58
2023-05-22T03:39:30.587Z,100732.28
2023-05-22T03:44:33.795Z,100729.61
2023-05-22T03:49:36.800Z,100726.23
2023-05-22T03:54:39.908Z,100728.30
2023-05-22T03:59:42.927Z,100730.45
2023-05-22T04:04:49.159Z,100727.80
2023-05-22T04:09:52.403Z,100728.38
2023-05-22T04:14:55.659Z,100730.20
2023-05-22T04:19:58.810Z,100720.85
2023-05-22T04:25:01.765Z,100720.06
2023-05-22T04:30:07.478Z,100715.17
2023-05-22T04:35:12.510Z,100707.07
2023-05-22T04:40:16.420Z,100703.27
2023-05-22T04:45:21.445Z,100697.84
2023-05-22T04:50:25.165Z,100691.44
2023-05-22T04:55:28.482Z,100684.94
2023-05-22T05:00:32.605Z,100683.14
2023-05-22T05:05:36.028Z,100683.10
2023-05-22T05:10:39.542Z,100680.99
2023-05-22T05:15:42.967Z,100676.10
2023-05-22T05:20:46.438Z,100678.20
2023-05-22T05:25:49.799Z,100680.71
2023-05-22T05:30:53.006Z,100681.71
2023-05-22T05:35:56.424Z,100678.39
2023-05-22T05:40:59.550Z,100672.55
2023-05-22T05:46:02.770Z,100675.75
2023-05-22T05:51:05.969Z,100675.39
2023-05-22T05:56:09.947Z,100671.88
2023-05-22T06:01:13.422Z,100667.71
2023-05-22T06:06:17.745Z,100668.42
2023-05-22T06:11:22.415Z,100667.52
2023-05-22T06:16:26.615Z,100663.58
2023-05-22T06:21:29.839Z,100660.39
2023-05-22T06:26:33.611Z,100662.16
2023-05-22T06:31:38.768Z,100656.77
2023-05-22T06:36:42.493Z,100662.09
2023-05-22T06:41:45.858Z,100658.18
2023-05-22T06:46:49.382Z,100654.91
2023-05-22T06:51:52.816Z,100654.95
2023-05-22T06:56:57.752Z,100655.80
2023-05-22T07:02:01.161Z,100651.44
2023-05-22T07:07:04.475Z,100651.52
2023-05-22T07:12:08.543Z,100646.17
2023-05-22T07:17:11.826Z,100646.80
2023-05-22T07:22:15.593Z,100645.88
2023-05-22T07:27:18.858Z,100641.73
2023-05-22T07:32:22.425Z,100638.79
2023-05-22T07:37:25.805Z,100634.11
2023-05-22T07:42:30.432Z,100637.67
2023-05-22T07:47:33.596Z,100630.10
2023-05-22T07:52:36.855Z,100624.68
2023-05-22T07:57:39.973Z,100620.60
2023-05-22T08:02:44.071Z,100617.86
2023-05-22T08:07:47.300Z,100616.44
2023-05-22T08:12:50.537Z,100613.44
2023-05-22T08:17:53.853Z,100604.60
2023-05-22T08:22:57.152Z,100597.81
2023-05-22T08:28:00.251Z,100595.91
2023-05-22T08:33:03.477Z,100605.69
2023-05-22T08:38:06.775Z,100598.63
2023-05-22T08:43:09.890Z,100593.70
2023-05-22T08:48:14.206Z,100589.36
2023-05-22T08:53:19.180Z,100594.21
2023-05-22T08:58:22.514Z,100588.06
2023-05-22T09:03:29.084Z,100580.77
2023-05-22T09:08:32.501Z,100568.90
2023-05-22T09:13:38.895Z,100569.23
2023-05-22T09:18:42.778Z,100564.35
2023-05-22T09:23:51.108Z,100565.60
2023-05-22T09:28:54.256Z,100557.52
2023-05-22T09:33:57.595Z,100550.55
2023-05-22T09:39:01.961Z,100551.11
2023-05-22T09:44:16.312Z,100542.42
2023-05-22T09:49:19.795Z,100549.98
2023-05-22T09:54:26.368Z,100541.28
2023-05-22T09:59:31.588Z,100529.08
2023-05-22T10:04:35.065Z,100527.79
2023-05-22T10:09:40.908Z,100524.24
2023-05-22T10:14:44.150Z,100520.97
2023-05-22T10:19:47.576Z,100513.70
2023-05-22T10:24:52.326Z,100508.34
2023-05-22T10:30:04.063Z,100504.73
2023-05-22T10:35:38.878Z,100502.17
2023-05-22T10:40:45.498Z,100491.76
2023-05-22T10:45:48.809Z,100480.91
2023-05-22T10:50:54.868Z,100475.90
2023-05-22T10:56:02.786Z,100472.45
2023-05-22T11:01:11.153Z,100469.77
2023-05-22T11:06:32.559Z,100466.50
2023-05-22T11:11:35.666Z,100459.55
2023-05-22T11:16:39.521Z,100454.04
2023-05-22T11:21:47.007Z,100452.11
2023-05-22T11:27:06.910Z,100445.66
2023-05-22T11:32:12.257Z,100446.54
2023-05-22T11:37:16.506Z,100440.56
2023-05-22T11:42:20.230Z,100440.64
2023-05-22T11:47:23.469Z,100429.19
2023-05-22T11:52:32.757Z,100431.80
2023-05-22T11:57:36.963Z,100425.63
2023-05-22T12:02:46.819Z,100415.81
2023-05-22T12:07:50.498Z,100414.09
2023-05-22T12:12:54.864Z,100406.45
2023-05-22T12:17:58.165Z,100405.08
2023-05-22T12:23:01.402Z,100406.13
2023-05-22T12:28:07.147Z,100403.96
2023-05-22T12:33:14.435Z,100397.13
2023-05-22T12:38:21.382Z,100393.13
2023-05-22T12:43:25.702Z,100388.73
2023-05-22T12:48:29.000Z,100388.02
2023-05-22T12:53:32.117Z,100387.41
2023-05-22T12:58:35.330Z,100387.95
2023-05-22T13:03:38.441Z,100383.38
2023-05-22T13:08:41.751Z,100377.63
2023-05-22T13:13:44.854Z,100377.33
2023-05-22T13:18:48.221Z,100367.58
2023-05-22T13:23:51.845Z,100362.78
2023-05-22T13:28:55.102Z,100358.27
2023-05-22T13:33:59.148Z,100353.34
2023-05-22T13:39:03.058Z,100349.89
2023-05-22T13:44:06.521Z,100337.79
2023-05-22T13:49:09.691Z,100329.25
2023-05-22T13:54:13.011Z,100333.34
2023-05-22T13:59:16.111Z,100334.95
2023-05-22T14:04:19.427Z,100330.83
2023-05-22T14:09:22.740Z,100329.96
2023-05-22T14:14:26.057Z,100327.11
2023-05-22T14:19:29.334Z,100322.90
2023-05-22T14:24:32.471Z,100323.88
2023-05-22T14:29:35.925Z,100321.69
2023-05-22T14:34:39.717Z,100320.66
2023-05-22T14:39:42.828Z,100319.79
2023-05-22T14:44:46.346Z,100317.54
2023-05-22T14:49:49.456Z,100315.16
2023-05-22T14:54:52.564Z,100310.32
2023-05-22T14:59:55.875Z,100303.95
2023-05-22T15:04:58.907Z,100297.41
2023-05-22T15:10:02.509Z,100294.55
2023-05-22T15:15:06.295Z,100292.27
2023-05-22T15:20:10.630Z,100289.09
2023-05-22T15:25:15.554Z,100284.81
2023-05-22T15:30:20.792Z,100278.17
2023-05-22T15:35:25.422Z,100273.39
2023-05-22T15:40:28.438Z,100263.11
2023-05-22T15:45:32.098Z,100258.00
2023-05-22T15:50:35.358Z,100252.00
2023-05-22T15:55:38.792Z,100246.49
2023-05-22T16:00:42.096Z,100251.21
2023-05-22T16:05:47.252Z,100251.73
2023-05-22T16:10:50.359Z,100251.26
2023-05-22T16:15:53.804Z,100245.50
2023-05-22T16:20:56.885Z,100242.23
2023-05-22T16:26:00.198Z,100241.12
2023-05-22T16:31:03.540Z,100235.88
2023-05-22T16:36:07.199Z,100234.45
2023-05-22T16:41:10.344Z,100237.62
2023-05-22T16:46:13.482Z,100239.00
2023-05-22T16:51:16.878Z,100235.71
2023-05-22T16:56:21.106Z,100235.42
2023-05-22T17:01:24.486Z,100230.42
2023-05-22T17:06:29.494Z,100233.34
2023-05-22T17:11:33.214Z,100229.06
2023-05-22T17:16:38.101Z,100232.64
2023-05-22T17:21:41.466Z,100230.96
2023-05-22T17:26:44.886Z,100226.86
2023-05-22T17:31:48.292Z,100227.66
2023-05-22T17:36:51.613Z,100227.34
2023-05-22T17:41:54.719Z,100229.18
2023-05-22T17:46:58.038Z,100229.06
2023-05-22T17:52:01.144Z,100222.70
2023-05-22T17:57:04.788Z,100219.52
2023-05-22T18:02:09.799Z,100218.13
2023-05-22T18:07:13.549Z,100216.45
2023-05-22T18:12:31.063Z,100207.66
2023-05-22T18:17:35.420Z,100206.70
2023-05-22T18:22:40.144Z,100213.58
2023-05-22T18:27:43.519Z,100211.56
2023-05-22T18:32:46.740Z,100215.99
2023-05-22T18:37:49.910Z,100222.05
2023-05-22T18:42:53.122Z,100219.34
2023-05-22T18:47:56.372Z,100219.35
2023-05-22T18:52:59.692Z,100225.95
2023-05-22T18:58:03.278Z,100225.91
2023-05-22T19:03:06.656Z,100225.70
2023-05-22T19:08:10.003Z,100227.56
2023-05-22T19:13:13.117Z,100230.27
2023-05-22T19:18:16.525Z,100230.58
2023-05-22T19:23:19.638Z,100234.14
2023-05-22T19:28:23.345Z,100234.52
2023-05-22T19:33:27.181Z,100233.81
2023-05-22T19:38:31.390Z,100235.70
2023-05-22T19:43:35.069Z,100234.05
2023-05-22T19:48:38.261Z,100231.84
2023-05-22T19:53:41.872Z,100229.11
2023-05-22T19:58:45.320Z,100230.48
2023-05-22T20:03:48.626Z,100230.27
2023-05-22T20:08:51.926Z,100227.70
2023-05-22T20:13:55.696Z,100227.13
2023-05-22T20:18:58.965Z,100226.80
2023-05-22T20:24:06.130Z,100224.69
2023-05-22T20:29:09.577Z,100220.29
2023-05-22T20:34:12.890Z,100213.09
2023-05-22T20:39:16.515Z,100213.60
2023-05-22T20:44:23.763Z,100214.42
2023-05-22T20:49:28.292Z,100217.10
2023-05-22T20:54:34.815Z,100221.20
2023-05-22T20:59:38.365Z,100223.25
2023-05-22T21:04:41.681Z,100221.17
2023-05-22T21:09:45.008Z,100225.80
2023-05-22T21:14:48.424Z,100221.08
2023-05-22T21:19:51.724Z,100218.59
2023-05-22T21:24:55.048Z,100223.70
2023-05-22T21:29:58.156Z,100227.59
2023-05-22T21:35:01.259Z,100223.06
2023-05-22T21:40:04.900Z,100219.61
2023-05-22T21:45:08.717Z,100220.38
2023-05-22T21:50:12.138Z,100220.56
2023-05-22T21:55:15.807Z,100220.34
2023-05-22T22:00:19.308Z,100227.04
2023-05-22T22:05:22.368Z,100226.70
2023-05-22T22:10:25.596Z,100228.88
2023-05-22T22:15:28.792Z,100230.89
2023-05-22T22:20:44.124Z,100225.67
2023-05-22T22:25:49.483Z,100221.84
2023-05-22T22:30:55.328Z,100224.86
2023-05-22T22:35:58.836Z,100221.27
2023-05-22T22:41:02.055Z,100220.61
2023-05-22T22:46:05.606Z,100217.33
2023-05-22T22:51:09.813Z,100211.13
2023-05-22T22:56:13.132Z,100212.48
2023-05-22T23:01:16.251Z,100206.70
2023-05-22T23:06:19.643Z,100205.59
2023-05-22T23:11:22.760Z,100203.37
2023-05-22T23:16:26.013Z,100196.83
2023-05-22T23:21:29.377Z,100192.38
2023-05-22T23:26:33.671Z,100191.20
2023-05-22T23:31:37.323Z,100190.58
2023-05-22T23:36:40.552Z,100195.01
2023-05-22T23:41:44.684Z,100197.66
2023-05-22T23:46:50.144Z,100191.27
2023-05-22T23:51:53.253Z,100195.02
2023-05-22T23:56:56.264Z,100194.96
